Flight Track Log - Related Links

Times and Time Zones

All times are in EST time to prevent confusion due to time zone crossing. See the AAY855 flight status page for this flight to view local times or setup timezone preferences in your user account.

Time Position Orientation Groundspeed Altitude Reporting Facility
EST Latitude Longitude Course Direction KTS MPH feet Rate Location/Type
Thu 09:21:14 AM 41.6747 -86.2108 151° Southeast 209 241 4,200  Level Chicago Center
Thu 09:22:16 AM 41.6131 -86.1644 151° Southeast 252 290 7,000 2,565 Climbing Chicago Center
Thu 09:23:18 AM 41.5450 -86.1186 153° Southeast 272 313 9,500 1,935 Climbing Chicago Center
Thu 09:24:20 AM 41.4564 -86.0967 169° South 334 384 11,000 1,935 Climbing Chicago Center
Thu 09:25:22 AM 41.3364 -86.0842 176° South 364 419 13,500 2,226 Climbing Chicago Center
Thu 09:26:24 AM 41.2336 -86.0547 168° South 383 441 15,600 1,805 Climbing Chicago Center
Thu 09:27:25 AM 41.1281 -86.0075 161° South 401 461 17,200 1,512 Climbing Chicago Center
Thu 09:28:27 AM 41.0164 -85.9561 161° South 422 486 18,700 1,742 Climbing Chicago Center
Thu 09:29:29 AM 40.9033 -85.9047 161° South 430 495 20,800 1,742 Climbing Chicago Center
Thu 09:30:31 AM 40.7892 -85.8567 162° South 432 497 22,300 1,548 Climbing Chicago Center
Thu 09:31:33 AM 40.6614 -85.8031 162° South 438 504 24,000 1,645 Climbing Chicago Center
Thu 09:32:35 AM 40.5419 -85.7589 164° South 443 510 25,700 1,597 Climbing Chicago Center
Thu 09:33:37 AM 40.4250 -85.7489 176° South 425 489 27,300 1,445 Climbing Chicago Center
Thu 09:34:52 AM 40.2628 -85.6889 164° South 428 493 29,000 745 Climbing Indianapolis Center
Thu 09:35:54 AM 40.1489 -85.6383 161° South 428 493 29,000  Level Indianapolis Center
Thu 09:36:56 AM 40.0331 -85.5872 161° South 431 496 29,000  Level Indianapolis Center
Thu 09:37:59 AM 39.9175 -85.5369 162° South 432 497 29,000  Level Indianapolis Center
Thu 09:39:01 AM 39.8028 -85.4875 162° South 432 497 29,000  Level Indianapolis Center
Thu 09:40:03 AM 39.6875 -85.4381 162° South 432 497 29,000  Level Indianapolis Center
Thu 09:41:05 AM 39.5794 -85.3578 150° Southeast 442 509 29,000  Level Indianapolis Center
Thu 09:42:07 AM 39.4508 -85.2625 150° Southeast 443 510 29,000  Level Indianapolis Center
Thu 09:43:09 AM 39.3383 -85.1933 155° Southeast 441 507 29,000  Level Indianapolis Center
Thu 09:44:11 AM 39.2242 -85.1536 165° South 429 494 29,000  Level Indianapolis Center
Thu 09:45:13 AM 39.1047 -85.1206 168° South 432 497 29,000  Level Indianapolis Center
Thu 09:46:15 AM 38.9875 -85.0861 167° South 431 496 29,000  Level Indianapolis Center
Thu 09:47:17 AM 38.8703 -85.0456 165° South 433 498 29,000  Level Indianapolis Center
Thu 09:48:19 AM 38.7303 -84.9925 164° South 435 501 29,000  Level Indianapolis Center
Thu 09:49:21 AM 38.6200 -84.9553 165° South 434 499 29,000  Level Indianapolis Center
Thu 09:50:24 AM 38.5017 -84.9217 167° South 433 498 29,000  Level Indianapolis Center
Thu 09:51:26 AM 38.3664 -84.8794 166° South 433 498 29,000  Level Indianapolis Center
Thu 09:52:28 AM 38.2558 -84.8372 163° South 421 484 29,000  Level Indianapolis Center
Thu 09:53:30 AM 38.1428 -84.8006 166° South 421 484 29,000  Level Indianapolis Center
Thu 09:54:32 AM 38.0306 -84.7644 166° South 420 483 29,000  Level Indianapolis Center
Thu 09:55:34 AM 37.9197 -84.7297 166° South 416 479 29,000  Level Indianapolis Center
Thu 09:56:36 AM 37.7900 -84.6894 166° South 414 476 29,000 -194 Level Indianapolis Center
Thu 09:57:38 AM 37.6783 -84.6533 166° South 413 475 28,600 -774 Descending Indianapolis Center
Thu 09:58:40 AM 37.5664 -84.6183 166° South 413 475 27,400 -774 Descending Indianapolis Center
Thu 09:59:42 AM 37.4489 -84.5817 166° South 427 491 27,000 -194 Descending Indianapolis Center
Thu 10:00:44 AM 37.3311 -84.5428 165° South 431 496 27,000  Level Indianapolis Center
Thu 10:01:47 AM 37.1942 -84.4975 165° South 432 497 27,000  Level Indianapolis Center
Thu 10:02:49 AM 37.0786 -84.4600 165° South 432 497 27,000  Level Indianapolis Center
Thu 10:03:51 AM 36.9608 -84.4242 166° South 432 497 27,000  Level Indianapolis Center
Thu 10:04:53 AM 36.8444 -84.3889 166° South 432 497 27,000  Level Indianapolis Center
Thu 10:05:55 AM 36.7294 -84.3536 166° South 431 496 27,000  Level Indianapolis Center
Thu 10:06:57 AM 36.5947 -84.3100 165° South 430 495 27,000  Level Indianapolis Center
Thu 10:07:59 AM 36.4811 -84.2722 165° South 430 495 27,000  Level Indianapolis Center
Thu 10:09:01 AM 36.3664 -84.2383 167° South 427 491 27,000  Level Indianapolis Center
Thu 10:10:03 AM 36.2503 -84.2039 167° South 426 490 27,000  Level Indianapolis Center
Thu 10:11:05 AM 36.1344 -84.1686 166° South 426 490 27,000  Level Indianapolis Center
Thu 10:12:07 AM 36.0186 -84.1333 166° South 426 490 27,000  Level Indianapolis Center
Thu 10:13:09 AM 35.8822 -84.0900 166° South 423 487 27,000  Level Indianapolis Center
Thu 10:14:12 AM 35.7686 -84.0561 166° South 421 484 27,000  Level Indianapolis Center
Thu 10:15:14 AM 35.6536 -84.0231 167° South 420 483 27,000  Level Indianapolis Center
Thu 10:16:22 AM 35.5222 -83.9853 167° South 420 483 27,000  Level Atlanta Center
Thu 10:17:22 AM 35.4075 -83.9497 166° South 420 483 27,000  Level Atlanta Center
Thu 10:18:22 AM 35.2947 -83.9142 166° South 414 476 27,000  Level Atlanta Center
Thu 10:19:22 AM 35.2069 -83.8889 167° South 414 476 27,000  Level Atlanta Center
Thu 10:20:22 AM 35.0881 -83.8533 166° South 409 471 27,000  Level Atlanta Center
Thu 10:21:22 AM 34.9753 -83.8208 167° South 409 471 27,000  Level Atlanta Center
Thu 10:22:22 AM 34.8667 -83.7831 164° South 415 478 27,000  Level Atlanta Center
Thu 10:23:22 AM 34.7561 -83.7481 165° South 415 478 27,000  Level Atlanta Center
Thu 10:24:22 AM 34.6433 -83.7156 167° South 415 478 27,000  Level Atlanta Center
Thu 10:25:22 AM 34.5242 -83.6833 167° South 407 468 27,000  Level Atlanta Center
Thu 10:26:22 AM 34.4114 -83.6486 166° South 407 468 27,000  Level Atlanta Center
Thu 10:27:22 AM 34.3006 -83.6164 166° South 413 475 27,000  Level Atlanta Center
Thu 10:28:22 AM 34.1919 -83.5842 166° South 413 475 27,000  Level Atlanta Center
Thu 10:29:22 AM 34.0792 -83.5522 167° South 413 475 27,000  Level Atlanta Center
Thu 10:30:22 AM 33.9706 -83.5228 167° South 413 475 27,000  Level Atlanta Center
Thu 10:31:22 AM 33.8597 -83.4883 166° South 413 475 27,000  Level Atlanta Center
Thu 10:32:22 AM 33.7617 -83.4617 167° South 408 470 27,000  Level Atlanta Center
Thu 10:33:22 AM 33.6508 -83.4300 167° South 408 470 27,000  Level Atlanta Center
Thu 10:34:22 AM 33.5381 -83.3983 167° South 413 475 27,000  Level Atlanta Center
Thu 10:35:22 AM 33.4292 -83.3692 167° South 408 470 27,000  Level Atlanta Center
Thu 10:36:22 AM 33.3164 -83.3403 168° South 413 475 27,000 400 Level Atlanta Center
Thu 10:37:22 AM 33.1931 -83.3017 165° South 413 475 27,800 500 Climbing Atlanta Center
Thu 10:38:22 AM 33.0822 -83.2703 167° South 413 475 28,000 100 Climbing Atlanta Center
Thu 10:39:22 AM 32.9839 -83.2389 165° South 410 472 28,000  Level Atlanta Center
Thu 10:40:22 AM 32.8583 -83.2031 167° South 415 478 28,000  Level Atlanta Center
Thu 10:41:22 AM 32.7456 -83.1769 169° South 415 478 28,000  Level Atlanta Center
Thu 10:42:22 AM 32.6344 -83.1411 165° South 415 478 28,000  Level Atlanta Center
Thu 10:43:22 AM 32.5236 -83.1075 166° South 415 478 28,000  Level Atlanta Center
Thu 10:44:22 AM 32.4108 -83.0769 167° South 415 478 28,000  Level Atlanta Center
Thu 10:45:22 AM 32.3019 -83.0461 167° South 415 478 28,000  Level Atlanta Center
Thu 10:47:18 AM 32.1122 -82.9931 167° South 423 487 28,000  Level Jacksonville Center
Thu 10:48:18 AM 31.9911 -82.9586 166° South 413 475 28,000  Level Jacksonville Center
Thu 10:49:18 AM 31.8825 -82.9292 167° South 413 475 28,000  Level Jacksonville Center
Thu 10:50:18 AM 31.7783 -82.9000 167° South 407 468 28,000  Level Jacksonville Center
Thu 10:51:18 AM 31.6656 -82.8681 166° South 407 468 28,000  Level Jacksonville Center
Thu 10:52:18 AM 31.5528 -82.8364 167° South 412 474 28,000  Level Jacksonville Center
Thu 10:53:18 AM 31.4461 -82.8050 166° South 412 474 28,000  Level Jacksonville Center
Thu 10:54:18 AM 31.3458 -82.7806 168° South 398 458 28,000  Level Jacksonville Center
Thu 10:55:18 AM 31.2519 -82.7542 166° South 368 423 28,000  Level Jacksonville Center
Thu 10:56:18 AM 31.1642 -82.7300 167° South 347 399 28,000 -50 Level Jacksonville Center
Thu 10:57:18 AM 31.0597 -82.7033 168° South 342 394 27,900 -50 Descending Jacksonville Center
Thu 10:58:18 AM 30.9636 -82.6794 168° South 342 394 27,900  Level Jacksonville Center
Thu 10:59:18 AM 30.8739 -82.6625 171° South 342 394 27,900  Level Jacksonville Center
Thu 11:00:18 AM 30.7864 -82.6992 200° South 324 373 27,900  Level Jacksonville Center
Thu 11:01:18 AM 30.7008 -82.7453 205° Southwest 324 373 27,900  Level Jacksonville Center
Thu 11:02:18 AM 30.6172 -82.7911 205° Southwest 331 381 27,900  Level Jacksonville Center
Thu 11:03:18 AM 30.5317 -82.8081 190° South 319 367 27,900 50 Level Jacksonville Center
Thu 11:04:18 AM 30.4503 -82.7383 144° Southeast 305 351 28,000  Climbing Jacksonville Center
Thu 11:05:18 AM 30.3667 -82.6686 144° Southeast 332 382 27,900 -100 Descending Jacksonville Center
Thu 11:06:18 AM 30.2642 -82.6281 161° South 366 421 27,800 -450 Descending Jacksonville Center
Thu 11:07:18 AM 30.1617 -82.5850 160° South 384 442 27,000 -450 Descending Jacksonville Center
Thu 11:08:18 AM 30.0572 -82.5469 162° South 391 450 26,900 -50 Descending Jacksonville Center
Thu 11:09:18 AM 29.9486 -82.4994 159° South 396 456 26,900 -450 Level Jacksonville Center
Thu 11:10:18 AM 29.8461 -82.4567 160° South 401 461 26,000 -950 Descending Jacksonville Center
Thu 11:11:18 AM 29.7394 -82.4142 161° South 401 461 25,000 -900 Descending Jacksonville Center
Thu 11:12:18 AM 29.6369 -82.3764 162° South 401 461 24,200 -550 Descending Jacksonville Center
Thu 11:13:18 AM 29.5325 -82.3508 168° South 388 447 23,900 -150 Descending Jacksonville Center
Thu 11:14:18 AM 29.4281 -82.3369 173° South 388 447 23,900 -600 Level Jacksonville Center
Thu 11:15:18 AM 29.3217 -82.3281 176° South 388 447 22,700 -1,350 Descending Jacksonville Center
Thu 11:16:18 AM 29.2256 -82.3167 174° South 388 447 21,200 -1,800 Descending Jacksonville Center
Thu 11:17:18 AM 29.1233 -82.3031 173° South 388 447 19,100 -2,050 Descending Jacksonville Center
Thu 11:18:18 AM 29.0231 -82.2894 173° South 383 441 17,100 -2,100 Descending Jacksonville Center
Thu 11:19:18 AM 28.9186 -82.2806 176° South 365 420 14,900 -2,000 Descending Jacksonville Center
Thu 11:20:18 AM 28.8289 -82.2692 174° South 344 396 13,100 -888 Descending Jacksonville Center
Thu 11:22:34 AM 28.6500 -82.2500 175° South 300 345 12,000 -888 Descending Tampa TRACON
Thu 11:23:34 AM 28.5667 -82.3000 208° Southwest 310 357 10,200 -1,000 Descending Tampa TRACON
Thu 11:24:34 AM 28.5333 -82.4000 249° West 295 339 10,000 -100 Descending Tampa TRACON
Thu 11:25:34 AM 28.5167 -82.4833 257° West 292 336 10,000  Level Tampa TRACON
Thu 11:26:34 AM 28.4833 -82.5667 246° West 299 344 10,000 -100 Level Tampa TRACON
Thu 11:27:34 AM 28.4500 -82.6500 246° West 292 336 9,800 -750 Descending Tampa TRACON
Thu 11:28:34 AM 28.3833 -82.7000 213° Southwest 259 298 8,500 -1,300 Descending Tampa TRACON
Thu 11:29:34 AM 28.3333 -82.7333 210° Southwest 244 281 7,200 -1,300 Descending Tampa TRACON
Thu 11:30:34 AM 28.2667 -82.7667 204° Southwest 236 272 5,900 -1,200 Descending Tampa TRACON
Thu 11:31:34 AM 28.2000 -82.7667 180° South 238 274 4,800 -950 Descending Tampa TRACON
Thu 11:32:34 AM 28.1333 -82.7667 180° South 241 277 4,000 -550 Descending Tampa TRACON
Thu 11:33:34 AM 28.0667 -82.7833 192° South 240 276 3,700 -500 Descending Tampa TRACON
Thu 11:34:34 AM 28.0000 -82.7833 180° South 245 282 3,000 -333 Descending Tampa TRACON
Thu 11:35:40 AM 27.9333 -82.7833 180° South 243 280 3,000  Level Tampa TRACON
Thu 11:36:40 AM 27.8667 -82.7833 180° South 239 275 3,000 -500 Level Tampa TRACON
Thu 11:37:40 AM 27.8000 -82.7833 180° South 236 272 2,000 -500 Descending Tampa TRACON
Thu 11:38:40 AM 27.7333 -82.7833 180° South 226 260 2,000  Level Tampa TRACON
Thu 11:39:40 AM 27.7167 -82.7333 111° Southeast 199 229 2,000  Level Tampa TRACON
Thu 11:40:41 AM 27.7333 -82.6667 74° East 211 243 2,000  Level Tampa TRACON
Thu 11:41:41 AM 27.7833 -82.6667 360° North 204 235 2,000 -400 Level Tampa TRACON
Thu 11:42:41 AM 27.8333 -82.6833 344° North 182 209 1,200 -762 Descending Tampa TRACON
Thu 11:43:47 AM 27.8833 -82.6833 360° North 141 162 400 -727 Descending Tampa TRACON

Login

Don't have an account? Register now (free) for customized features, flight alerts, and more!